Time;durP1;ratioP1;P1;durP2;ratioP2;P2;SDS_P1;SDS_P2;PMS_P1;PMS_P2;Temp;Humidity;BMP_temperature;BMP_pressure;BME280_temperature;BME280_humidity;BME280_pressure;Samples;Min_cycle;Max_cycle;Signal;HPM_P1;HPM_P2
2022/02/06 00:00:31;;;;;;;13.97;1.80;;;8.00;99.90;;;;;;5224408;22;20156;-95
2022/02/06 00:02:37;;;;;;;13.23;1.60;;;8.10;99.90;;;;;;5200211;22;20155;-95
2022/02/06 00:04:41;;;;;;;8.60;1.90;;;8.10;99.90;;;;;;5202350;22;20227;-95
2022/02/06 00:06:45;;;;;;;6.33;1.40;;;8.10;99.90;;;;;;5223959;22;20158;-96
2022/02/06 00:08:45;;;;;;;8.63;1.63;;;8.20;99.90;;;;;;5227151;22;20177;-95
2022/02/06 00:10:49;;;;;;;7.63;1.47;;;8.10;99.90;;;;;;5225552;22;20160;-96
2022/02/06 00:12:54;;;;;;;12.13;1.73;;;8.10;99.90;;;;;;5201720;22;20221;-94
2022/02/06 00:14:54;;;;;;;6.40;1.27;;;8.10;99.90;;;;;;5201340;22;20127;-95
2022/02/06 00:16:55;;;;;;;11.50;1.87;;;8.10;99.90;;;;;;5226055;22;20237;-95
2022/02/06 00:18:57;;;;;;;9.17;1.40;;;8.00;99.90;;;;;;5198555;22;20558;-94
2022/02/06 00:21:03;;;;;;;9.43;1.77;;;8.00;99.90;;;;;;5201112;22;20150;-95
2022/02/06 00:23:09;;;;;;;11.97;2.00;;;7.90;99.90;;;;;;5225360;22;20181;-96
2022/02/06 00:27:27;;;;;;;13.50;1.80;;;8.00;99.90;;;;;;5225198;22;20145;-94
2022/02/06 00:31:48;;;;;;;9.30;2.20;;;7.90;99.90;;;;;;5199819;22;20147;-96
2022/02/06 00:42:59;;;;;;;8.40;1.40;;;8.10;99.90;;;;;;5201732;22;20199;-93
2022/02/06 00:45:01;;;;;;;9.87;1.50;;;8.10;99.90;;;;;;5204902;22;20150;-95
2022/02/06 00:47:03;;;;;;;7.87;1.40;;;8.20;99.90;;;;;;5201740;22;20146;-95
2022/02/06 00:49:21;;;;;;;9.83;1.50;;;8.20;99.90;;;;;;5202076;22;20154;-94
2022/02/06 00:51:34;;;;;;;11.33;1.97;;;8.20;99.90;;;;;;5173240;23;20146;-94
2022/02/06 00:53:37;;;;;;;16.03;1.70;;;8.20;99.90;;;;;;5181480;22;20197;-95
2022/02/06 00:55:59;;;;;;;4.90;1.20;;;8.10;99.90;;;;;;5206005;22;20152;-93
2022/02/06 00:58:01;;;;;;;9.50;1.67;;;8.20;99.90;;;;;;5183088;23;20567;-94
2022/02/06 01:00:08;;;;;;;10.47;1.90;;;8.30;99.90;;;;;;5184479;22;20158;-93
2022/02/06 01:02:09;;;;;;;7.13;1.20;;;8.20;99.90;;;;;;5207965;22;20202;-93
2022/02/06 01:04:21;;;;;;;10.30;2.10;;;8.30;99.90;;;;;;5182783;22;20222;-94
2022/02/06 01:06:42;;;;;;;6.53;1.60;;;8.20;99.90;;;;;;5209713;22;20181;-94
2022/02/06 01:08:47;;;;;;;7.93;1.70;;;8.20;99.90;;;;;;5207727;22;20158;-92
2022/02/06 01:10:49;;;;;;;6.43;1.50;;;8.20;99.90;;;;;;5205710;22;20150;-93
2022/02/06 01:13:00;;;;;;;8.00;1.53;;;8.20;99.90;;;;;;5180525;22;20179;-92
2022/02/06 01:17:29;;;;;;;9.23;1.70;;;8.20;99.90;;;;;;5206797;22;20185;-93
2022/02/06 01:19:55;;;;;;;8.47;1.33;;;8.20;99.90;;;;;;5207715;22;20227;-93
2022/02/06 01:22:04;;;;;;;12.37;1.90;;;8.20;99.90;;;;;;5208896;22;20141;-94
2022/02/06 01:24:17;;;;;;;10.53;1.10;;;8.30;99.90;;;;;;5210251;22;20233;-93
2022/02/06 01:26:34;;;;;;;8.60;1.73;;;8.30;99.90;;;;;;5203720;22;20680;-94
2022/02/06 01:28:45;;;;;;;8.90;1.70;;;8.20;99.90;;;;;;5162506;22;20162;-96
2022/02/06 01:30:59;;;;;;;6.47;1.20;;;8.20;99.90;;;;;;5233831;22;20172;-93
2022/02/06 01:33:30;;;;;;;9.37;1.53;;;8.20;99.90;;;;;;5181711;22;20644;-94
2022/02/06 01:35:35;;;;;;;4.80;1.23;;;8.30;99.90;;;;;;5189164;22;20199;-95
2022/02/06 01:38:07;;;;;;;7.23;1.37;;;8.40;99.90;;;;;;5186951;22;20146;-96
2022/02/06 01:40:36;;;;;;;6.90;1.50;;;8.30;99.90;;;;;;5183749;22;20142;-95
2022/02/06 01:42:42;;;;;;;7.10;1.40;;;8.30;99.90;;;;;;5179751;22;20135;-93
2022/02/06 02:01:26;;;;;;;12.93;2.00;;;7.90;99.90;;;;;;5205938;22;20154;-95
2022/02/06 02:08:46;;;;;;;10.13;1.80;;;7.80;99.90;;;;;;5206445;22;20584;-94
2022/02/06 02:13:51;;;;;;;9.30;1.93;;;7.90;99.90;;;;;;5233855;22;20196;-94
2022/02/06 02:16:19;;;;;;;12.87;2.00;;;7.90;99.90;;;;;;5204388;22;20165;-95
2022/02/06 02:21:51;;;;;;;8.77;1.70;;;7.90;99.90;;;;;;5209501;22;20143;-96
2022/02/06 02:32:56;;;;;;;10.10;1.50;;;8.00;99.90;;;;;;5209330;22;20208;-94
2022/02/06 02:45:14;;;;;;;9.77;1.50;;;8.10;99.90;;;;;;5208808;22;20258;-95
2022/02/06 02:47:46;;;;;;;7.60;1.60;;;8.20;99.90;;;;;;5179964;22;20233;-94
2022/02/06 02:50:22;;;;;;;14.60;1.87;;;8.20;99.90;;;;;;5212087;22;20158;-94
2022/02/06 02:54:51;;;;;;;10.93;1.80;;;8.40;99.90;;;;;;5212091;22;20153;-94
2022/02/06 03:01:58;;;;;;;9.10;1.43;;;8.30;99.90;;;;;;5209509;22;20155;-95
2022/02/06 03:04:26;;;;;;;7.40;1.57;;;8.20;99.90;;;;;;5185673;22;20182;-95
2022/02/06 03:06:52;;;;;;;15.53;1.87;;;8.10;99.90;;;;;;5208461;22;20534;-93
2022/02/06 03:09:06;;;;;;;10.33;2.00;;;8.00;99.90;;;;;;5214836;22;20193;-96
2022/02/06 03:11:10;;;;;;;6.47;1.50;;;8.00;99.90;;;;;;5209667;22;20182;-94
2022/02/06 03:13:48;;;;;;;11.33;1.57;;;7.90;99.90;;;;;;5183031;22;20190;-95
2022/02/06 03:19:12;;;;;;;11.47;2.13;;;7.90;99.90;;;;;;5214474;22;20138;-94
2022/02/06 03:21:39;;;;;;;7.40;1.20;;;7.90;99.90;;;;;;5228602;22;20231;-96
2022/02/06 03:23:55;;;;;;;8.90;1.73;;;7.80;99.90;;;;;;5202065;22;20228;-96
2022/02/06 03:26:13;;;;;;;9.30;1.60;;;7.70;99.90;;;;;;5160006;23;20160;-96
2022/02/06 03:28:15;;;;;;;11.00;1.80;;;7.70;99.90;;;;;;5111745;23;20167;-96
2022/02/06 03:30:47;;;;;;;7.07;1.97;;;7.80;99.90;;;;;;5185297;22;20145;-94
2022/02/06 03:32:50;;;;;;;8.10;1.40;;;7.80;99.90;;;;;;5136810;23;20211;-94
2022/02/06 03:35:11;;;;;;;10.40;2.03;;;7.80;99.90;;;;;;5149764;23;20139;-96
2022/02/06 03:37:31;;;;;;;11.50;2.20;;;7.80;99.90;;;;;;5129079;23;20156;-94
2022/02/06 03:40:52;;;;;;;10.33;1.87;;;7.90;99.90;;;;;;5159863;23;20144;-94
2022/02/06 03:45:21;;;;;;;10.63;1.97;;;7.90;99.90;;;;;;5222069;22;20212;-93
2022/02/06 03:53:29;;;;;;;11.57;2.07;;;8.00;99.90;;;;;;5177696;22;20197;-96
2022/02/06 04:02:01;;;;;;;10.63;1.57;;;7.50;99.90;;;;;;5163917;22;20209;-94
2022/02/06 04:23:30;;;;;;;;;;;;;;;;;;;;;
2022/02/06 04:26:21;;;;;;;6.67;1.70;;;7.70;99.90;;;;;;5120970;22;20587;-94
2022/02/06 04:29:06;;;;;;;6.60;1.63;;;7.70;99.90;;;;;;5186051;22;20135;-94
2022/02/06 04:36:40;;;;;;;6.23;1.40;;;7.70;99.90;;;;;;5162532;22;20179;-95
2022/02/06 04:43:42;;;;;;;13.10;2.20;;;7.60;99.90;;;;;;5089310;23;20221;-94
2022/02/06 05:36:57;;;;;;;9.13;1.90;;;8.00;99.90;;;;;;5205503;22;20207;-93
2022/02/06 05:58:12;;;;;;;14.07;1.80;;;7.70;99.90;;;;;;5188176;23;20166;-94
2022/02/06 06:01:00;;;;;;;11.30;1.77;;;7.80;99.90;;;;;;5175432;22;20163;-93
2022/02/06 06:03:39;;;;;;;12.73;1.90;;;7.80;99.90;;;;;;5089095;23;20169;-94
2022/02/06 06:24:23;;;;;;;6.17;1.40;;;8.20;99.90;;;;;;5177442;22;20209;-95
2022/02/06 06:34:17;;;;;;;5.63;0.97;;;8.10;99.90;;;;;;5164709;22;20284;-95
2022/02/06 06:37:01;;;;;;;8.70;1.53;;;8.00;99.90;;;;;;5112446;23;20196;-96
2022/02/06 06:47:03;;;;;;;8.53;2.37;;;8.20;99.90;;;;;;5183105;22;20213;-93
2022/02/06 06:49:32;;;;;;;7.47;2.23;;;8.20;99.90;;;;;;5123990;23;20143;-96
2022/02/06 06:55:04;;;;;;;9.37;2.50;;;8.30;99.90;;;;;;5080988;23;20181;-96
2022/02/06 07:07:07;;;;;;;8.77;1.87;;;8.40;99.90;;;;;;5184333;22;20261;-93
2022/02/06 07:09:30;;;;;;;6.83;1.80;;;8.40;99.90;;;;;;5185286;22;20170;-95
2022/02/06 07:11:57;;;;;;;5.43;1.43;;;8.30;99.90;;;;;;5183969;22;20135;-95
2022/02/06 07:14:06;;;;;;;9.30;1.70;;;8.40;99.90;;;;;;5175483;22;20198;-96
2022/02/06 07:16:24;;;;;;;7.47;1.77;;;8.50;99.90;;;;;;5207912;22;20264;-95
2022/02/06 07:18:35;;;;;;;7.32;2.00;;;8.50;99.90;;;;;;5202924;22;20158;-95
2022/02/06 07:21:01;;;;;;;8.60;1.60;;;8.50;99.90;;;;;;5207684;22;20162;-94
2022/02/06 07:23:26;;;;;;;6.93;1.47;;;8.50;99.90;;;;;;5207599;22;20162;-95
2022/02/06 07:26:03;;;;;;;8.90;1.80;;;8.50;99.90;;;;;;5183304;22;20161;-95
2022/02/06 07:28:46;;;;;;;;;;;;;;;;;;;;;
2022/02/06 07:31:18;;;;;;;10.03;1.80;;;8.30;99.90;;;;;;5195946;22;20241;-95
2022/02/06 07:33:57;;;;;;;4.30;1.10;;;8.30;99.90;;;;;;5182612;22;20241;-94
2022/02/06 07:36:11;;;;;;;6.63;1.03;;;8.40;99.90;;;;;;5198000;22;20174;-94
2022/02/06 07:39:01;;;;;;;5.57;1.77;;;8.30;99.90;;;;;;5209087;22;20212;-94
2022/02/06 07:41:09;;;;;;;7.53;1.47;;;8.40;99.90;;;;;;5229376;22;20160;-94
2022/02/06 07:43:13;;;;;;;4.47;1.33;;;8.60;99.90;;;;;;5177817;22;20186;-95
2022/02/06 07:45:36;;;;;;;2.87;1.10;;;8.60;99.90;;;;;;5205934;22;20150;-96
2022/02/06 07:48:05;;;;;;;6.50;1.30;;;8.60;99.90;;;;;;5181366;22;20225;-95
2022/02/06 07:52:22;;;;;;;4.27;1.30;;;8.50;99.90;;;;;;5176221;22;20194;-94
2022/02/06 07:55:00;;;;;;;5.70;1.13;;;8.70;99.90;;;;;;5231378;22;20542;-94
2022/02/06 07:57:03;;;;;;;5.23;1.20;;;8.40;99.90;;;;;;5184642;22;20157;-93
2022/02/06 07:59:29;;;;;;;6.47;1.33;;;8.50;99.90;;;;;;5205703;22;20143;-94
2022/02/06 08:01:34;;;;;;;6.57;2.60;;;8.40;99.90;;;;;;5205852;22;20185;-94
2022/02/06 08:03:35;;;;;;;7.17;2.33;;;8.40;99.90;;;;;;5180377;22;20185;-95
2022/02/06 08:05:45;;;;;;;6.43;1.20;;;8.50;99.90;;;;;;5204697;22;20158;-95
2022/02/06 08:07:56;;;;;;;3.13;1.10;;;8.50;99.90;;;;;;5232164;22;20202;-93
2022/02/06 08:10:07;;;;;;;8.17;1.80;;;8.50;99.90;;;;;;5207087;22;20134;-93
2022/02/06 08:12:12;;;;;;;3.20;1.10;;;8.40;99.90;;;;;;5181962;22;20166;-94
2022/02/06 08:14:54;;;;;;;7.57;1.30;;;8.30;99.90;;;;;;5210418;22;20221;-94
2022/02/06 08:17:04;;;;;;;4.30;1.23;;;8.30;99.90;;;;;;5210551;22;20142;-94
2022/02/06 08:19:32;;;;;;;7.77;1.40;;;8.30;99.90;;;;;;5207105;22;20178;-95
2022/02/06 08:21:36;;;;;;;4.47;1.27;;;8.30;99.90;;;;;;5211851;22;20134;-95
2022/02/06 08:23:49;;;;;;;7.10;1.90;;;8.40;99.90;;;;;;5210272;22;20189;-94
2022/02/06 08:26:07;;;;;;;4.43;1.30;;;8.40;99.90;;;;;;5204115;22;20156;-93
2022/02/06 08:28:12;;;;;;;2.57;0.80;;;8.30;99.90;;;;;;5207852;22;20130;-95
2022/02/06 08:30:52;;;;;;;3.47;0.67;;;8.30;99.90;;;;;;5209409;22;20232;-93
2022/02/06 08:32:53;;;;;;;5.87;0.90;;;8.30;99.90;;;;;;5205849;22;20194;-93
2022/02/06 08:34:58;;;;;;;6.40;1.60;;;8.30;99.90;;;;;;5205476;22;20261;-94
2022/02/06 08:36:59;;;;;;;5.53;1.20;;;8.30;99.90;;;;;;5177540;22;20146;-94
2022/02/06 08:39:06;;;;;;;5.07;1.20;;;8.30;99.90;;;;;;5210760;22;20180;-93
2022/02/06 08:41:10;;;;;;;6.10;1.10;;;8.30;99.90;;;;;;5235035;22;20515;-94
2022/02/06 08:43:17;;;;;;;5.23;1.00;;;8.30;99.90;;;;;;5209086;22;20174;-93
2022/02/06 08:45:20;;;;;;;4.33;0.63;;;8.30;99.90;;;;;;5204118;22;20478;-93
2022/02/06 08:47:30;;;;;;;8.33;1.30;;;8.20;99.90;;;;;;5229243;22;20157;-93
2022/02/06 08:49:34;;;;;;;5.93;1.70;;;8.20;99.90;;;;;;5205626;22;20150;-94
2022/02/06 08:51:37;;;;;;;6.87;2.37;;;8.20;99.90;;;;;;5208016;22;20139;-92
2022/02/06 08:53:48;;;;;;;6.87;1.97;;;8.20;99.90;;;;;;5200695;22;20193;-95
2022/02/06 08:56:05;;;;;;;2.67;0.73;;;8.30;99.90;;;;;;5208134;22;20130;-94
2022/02/06 08:58:13;;;;;;;4.70;1.53;;;8.30;99.90;;;;;;5203006;22;20212;-95
2022/02/06 09:00:47;;;;;;;5.13;0.73;;;8.40;99.90;;;;;;5232119;22;20605;-94
2022/02/06 09:02:49;;;;;;;5.80;0.70;;;8.40;99.90;;;;;;5184267;22;20150;-94
2022/02/06 09:04:56;;;;;;;3.53;1.20;;;8.40;99.90;;;;;;5205548;22;20146;-95
2022/02/06 09:07:02;;;;;;;4.68;1.38;;;8.40;99.90;;;;;;5205575;22;20138;-94
2022/02/06 09:09:04;;;;;;;4.17;0.80;;;8.30;99.90;;;;;;5173937;22;20145;-93
2022/02/06 09:11:34;;;;;;;6.47;1.43;;;8.40;99.90;;;;;;5207172;22;20168;-94
2022/02/06 09:13:41;;;;;;;5.77;1.73;;;8.50;99.90;;;;;;5186714;22;20173;-95
2022/02/06 09:16:19;;;;;;;3.57;1.97;;;8.50;99.90;;;;;;5205481;22;20182;-94
2022/02/06 09:18:26;;;;;;;4.77;1.30;;;8.60;99.90;;;;;;5205135;22;20134;-94
2022/02/06 09:20:32;;;;;;;6.57;0.93;;;8.50;99.90;;;;;;5208341;22;20158;-94
2022/02/06 09:22:35;;;;;;;5.27;0.80;;;8.50;99.90;;;;;;5199898;22;20134;-94
2022/02/06 09:24:37;;;;;;;2.33;0.63;;;8.50;99.90;;;;;;5179006;22;20143;-95
2022/02/06 09:26:44;;;;;;;4.27;0.80;;;8.60;99.90;;;;;;5206712;22;20149;-94
2022/02/06 09:28:53;;;;;;;4.37;0.70;;;8.70;99.90;;;;;;5156755;23;20151;-95
2022/02/06 09:30:54;;;;;;;4.23;0.90;;;8.70;99.90;;;;;;5154351;23;20159;-93
2022/02/06 09:37:10;;;;;;;1.47;0.50;;;8.60;99.90;;;;;;5200601;22;20173;-93
2022/02/06 09:39:18;;;;;;;3.83;0.80;;;8.60;99.90;;;;;;5174485;22;20150;-93
2022/02/06 09:42:00;;;;;;;2.40;0.73;;;8.60;99.90;;;;;;5180683;22;20131;-94
2022/02/06 09:44:02;;;;;;;3.30;0.90;;;8.50;99.90;;;;;;5179164;22;20175;-94
2022/02/06 09:46:08;;;;;;;2.27;0.73;;;8.60;99.90;;;;;;5202119;22;20154;-95
2022/02/06 09:48:18;;;;;;;3.73;0.70;;;8.50;99.90;;;;;;5203773;22;20158;-94
2022/02/06 09:50:22;;;;;;;4.10;0.67;;;8.50;99.90;;;;;;5152579;23;20199;-95
2022/02/06 09:52:25;;;;;;;2.43;0.50;;;8.60;99.90;;;;;;5151038;23;20259;-95
2022/02/06 09:54:28;;;;;;;3.37;0.77;;;8.60;99.90;;;;;;5200161;22;20197;-94
2022/02/06 09:56:42;;;;;;;5.20;3.17;;;8.60;99.90;;;;;;5228160;22;20153;-94
2022/02/06 09:58:59;;;;;;;2.40;0.80;;;8.60;99.90;;;;;;5177085;22;20195;-92
2022/02/06 10:01:04;;;;;;;5.43;0.80;;;8.60;99.90;;;;;;5179046;22;20194;-93
2022/02/06 10:03:23;;;;;;;5.43;0.67;;;8.70;99.90;;;;;;5178705;23;20201;-95
2022/02/06 10:05:33;;;;;;;3.00;0.63;;;8.60;99.90;;;;;;5160146;23;20174;-94
2022/02/06 10:07:43;;;;;;;3.33;0.80;;;8.70;99.90;;;;;;5156660;23;20158;-93
2022/02/06 10:10:31;;;;;;;4.95;0.60;;;8.80;99.90;;;;;;5184539;22;20162;-94
2022/02/06 10:12:38;;;;;;;3.83;0.73;;;8.80;99.90;;;;;;5138910;22;20180;-94
2022/02/06 10:14:50;;;;;;;3.57;0.80;;;8.80;99.90;;;;;;5107826;23;20148;-92
2022/02/06 10:16:53;;;;;;;1.13;0.30;;;8.90;99.90;;;;;;5103523;23;20613;-93
2022/02/06 10:19:07;;;;;;;3.27;0.73;;;8.90;99.90;;;;;;5132297;23;20669;-94
2022/02/06 10:21:22;;;;;;;4.17;0.90;;;8.90;99.90;;;;;;5107446;23;20267;-94
2022/02/06 10:23:59;;;;;;;2.97;0.60;;;8.80;99.90;;;;;;5130694;22;20252;-94
2022/02/06 10:26:07;;;;;;;3.87;0.67;;;8.90;99.90;;;;;;5182246;22;20189;-94
2022/02/06 10:28:42;;;;;;;1.80;0.60;;;8.80;99.90;;;;;;5176680;22;20135;-94
2022/02/06 10:31:36;;;;;;;3.47;0.80;;;8.80;99.90;;;;;;5179501;22;20197;-95
2022/02/06 10:34:02;;;;;;;2.53;0.60;;;8.80;99.90;;;;;;5195781;22;20221;-93
2022/02/06 10:36:08;;;;;;;2.88;0.80;;;8.90;99.90;;;;;;5180214;22;20155;-94
2022/02/06 10:38:26;;;;;;;2.97;0.67;;;8.90;99.90;;;;;;5185575;22;20218;-92
2022/02/06 10:40:36;;;;;;;3.93;0.90;;;8.90;99.90;;;;;;5234216;22;20133;-93
2022/02/06 10:42:51;;;;;;;1.33;0.50;;;8.90;99.90;;;;;;5253319;22;20163;-93
2022/02/06 10:45:37;;;;;;;2.03;0.60;;;9.00;99.90;;;;;;5198003;22;20138;-94
2022/02/06 10:47:54;;;;;;;0.70;0.30;;;9.00;99.90;;;;;;5185101;22;20155;-93
2022/02/06 10:50:46;;;;;;;4.07;0.67;;;9.00;99.90;;;;;;5182263;22;20154;-93
2022/02/06 10:53:05;;;;;;;0.70;0.23;;;9.00;99.90;;;;;;5223500;22;20188;-94
2022/02/06 10:55:26;;;;;;;2.30;0.67;;;9.10;99.90;;;;;;5254448;22;20149;-94
2022/02/06 10:57:28;;;;;;;1.83;0.50;;;9.10;99.90;;;;;;5204288;22;20153;-94
2022/02/06 11:00:03;;;;;;;2.10;0.40;;;9.10;99.90;;;;;;5149342;22;20200;-92
2022/02/06 11:02:11;;;;;;;3.23;0.53;;;9.10;99.90;;;;;;5132599;23;20204;-95
2022/02/06 11:04:33;;;;;;;1.83;0.50;;;9.20;99.90;;;;;;5163742;22;20198;-94
2022/02/06 12:16:12;;;;;;;2.20;0.50;;;9.30;99.90;;;;;;5139666;23;20182;-94
2022/02/06 12:19:37;;;;;;;4.07;1.27;;;9.40;99.90;;;;;;5111635;23;20165;-94
2022/02/06 12:24:45;;;;;;;6.37;1.20;;;9.30;99.90;;;;;;5195221;22;20194;-95
2022/02/06 12:27:30;;;;;;;8.33;0.90;;;9.40;99.90;;;;;;5182039;22;20249;-94
2022/02/06 12:29:51;;;;;;;1.30;0.55;;;9.50;99.90;;;;;;5206746;22;20150;-95
2022/02/06 12:41:44;;;;;;;0.30;0.10;;;8.70;99.90;;;;;;5161113;22;20146;-95
2022/02/06 12:44:34;;;;;;;2.63;0.30;;;8.50;99.90;;;;;;5135157;23;20172;-95
2022/02/06 12:48:19;;;;;;;;;;;;;;;;;;;;;
2022/02/06 12:50:37;;;;;;;1.33;0.20;;;8.40;99.90;;;;;;5040009;23;20225;-94
2022/02/06 12:57:50;;;;;;;2.77;0.30;;;8.30;99.90;;;;;;5198744;22;20252;-94
2022/02/06 13:03:59;;;;;;;2.43;0.23;;;8.20;99.90;;;;;;5227977;22;20199;-93
2022/02/06 13:35:53;;;;;;;11.82;2.25;;;9.30;99.90;;;;;;5213242;22;20215;-95
2022/02/06 13:38:19;;;;;;;8.33;1.80;;;9.40;99.90;;;;;;5207900;22;20691;-95
2022/02/06 13:40:30;;;;;;;15.67;3.03;;;9.70;99.90;;;;;;5212057;22;20153;-94
2022/02/06 13:45:12;;;;;;;12.90;2.10;;;10.20;99.90;;;;;;5189206;22;20205;-93
2022/02/06 13:48:00;;;;;;;11.00;1.70;;;10.40;99.90;;;;;;5184592;22;20143;-92
2022/02/06 13:50:21;;;;;;;12.50;1.63;;;10.70;99.90;;;;;;5157951;23;20171;-93
2022/02/06 13:53:04;;;;;;;10.38;1.83;;;10.90;99.90;;;;;;5189048;22;20182;-96
2022/02/06 13:55:06;;;;;;;5.05;1.08;;;11.10;99.90;;;;;;5183529;22;20139;-95
2022/02/06 13:57:26;;;;;;;5.53;1.23;;;11.10;99.90;;;;;;5236835;22;20211;-94
2022/02/06 13:59:49;;;;;;;14.13;1.55;;;11.10;99.90;;;;;;5184025;22;20134;-94
2022/02/06 14:01:55;;;;;;;7.68;1.65;;;11.30;99.90;;;;;;5180386;22;20203;-94
2022/02/06 14:03:56;;;;;;;11.02;1.40;;;11.20;99.90;;;;;;5134046;23;20168;-93
2022/02/06 14:06:21;;;;;;;9.65;1.85;;;11.10;99.90;;;;;;5130418;23;20216;-94
2022/02/06 14:08:29;;;;;;;11.45;2.15;;;11.30;99.90;;;;;;5134294;23;20160;-94
2022/02/06 14:11:08;;;;;;;11.93;1.60;;;11.30;99.90;;;;;;5107137;23;20136;-94
2022/02/06 14:13:38;;;;;;;13.85;1.42;;;11.30;99.90;;;;;;5132378;23;20219;-92
2022/02/06 14:15:51;;;;;;;11.05;1.77;;;11.30;99.90;;;;;;5156361;23;20204;-93
2022/02/06 14:18:14;;;;;;;9.45;1.73;;;11.20;99.90;;;;;;5109123;23;20140;-95
2022/02/06 14:20:38;;;;;;;10.32;1.48;;;11.30;99.90;;;;;;5132572;23;20160;-94
2022/02/06 14:25:15;;;;;;;12.93;1.70;;;11.20;99.90;;;;;;5179884;22;20202;-92
2022/02/06 14:28:02;;;;;;;14.98;1.95;;;11.20;99.90;;;;;;5158383;23;20182;-95
2022/02/06 14:30:36;;;;;;;13.07;2.33;;;11.00;99.90;;;;;;5133023;23;20159;-92
2022/02/06 14:33:02;;;;;;;11.15;1.63;;;11.00;99.90;;;;;;5147662;23;20205;-93
2022/02/06 14:35:13;;;;;;;18.38;4.95;;;11.00;99.90;;;;;;5186240;22;20157;-94
2022/02/06 14:37:53;;;;;;;9.60;2.17;;;11.10;99.90;;;;;;5183832;23;20162;-95
2022/02/06 14:43:16;;;;;;;8.05;1.52;;;11.10;99.90;;;;;;5176192;22;20167;-93
2022/02/06 14:45:17;;;;;;;10.15;1.90;;;11.00;99.90;;;;;;5185648;22;20135;-94
2022/02/06 14:47:21;;;;;;;9.50;1.70;;;11.10;99.90;;;;;;5155184;23;20243;-93
2022/02/06 14:49:53;;;;;;;8.32;1.67;;;11.00;99.90;;;;;;5206130;22;20154;-94
2022/02/06 14:52:19;;;;;;;15.38;2.17;;;11.10;99.90;;;;;;5183572;22;20195;-95
2022/02/06 14:54:31;;;;;;;13.02;1.73;;;11.20;99.90;;;;;;5179518;22;20189;-95
2022/02/06 14:56:39;;;;;;;26.40;8.38;;;11.20;99.90;;;;;;5179159;23;20205;-95
2022/02/06 14:58:42;;;;;;;9.05;2.22;;;11.30;99.90;;;;;;5155596;23;20152;-93
2022/02/06 15:00:43;;;;;;;9.23;1.58;;;11.20;99.90;;;;;;5207712;22;20130;-94
2022/02/06 15:02:49;;;;;;;12.38;1.90;;;11.30;99.90;;;;;;5184121;22;20167;-96
2022/02/06 15:05:10;;;;;;;9.43;2.30;;;11.30;99.90;;;;;;5182057;22;20211;-93
2022/02/06 15:07:14;;;;;;;6.72;1.52;;;11.20;99.90;;;;;;5159480;23;20144;-94
2022/02/06 15:09:19;;;;;;;9.70;1.40;;;11.20;99.90;;;;;;5178647;22;20155;-93
2022/02/06 15:11:35;;;;;;;8.98;1.70;;;11.20;99.90;;;;;;5179436;22;20165;-95
2022/02/06 15:13:42;;;;;;;7.45;1.20;;;11.10;99.90;;;;;;5181374;22;20175;-95
2022/02/06 15:16:49;;;;;;;10.18;1.70;;;11.20;99.90;;;;;;5208845;22;20149;-96
2022/02/06 15:19:12;;;;;;;7.65;1.67;;;11.20;99.90;;;;;;5184691;23;20619;-94
2022/02/06 15:21:13;;;;;;;17.63;3.28;;;11.30;99.90;;;;;;5176325;23;20169;-94
2022/02/06 15:23:16;;;;;;;9.10;2.13;;;11.10;99.90;;;;;;5125011;23;20203;-94
2022/02/06 15:25:48;;;;;;;12.63;1.80;;;10.90;99.90;;;;;;5175569;22;20154;-95
2022/02/06 15:28:09;;;;;;;13.13;1.40;;;10.80;99.90;;;;;;5159322;23;20160;-95
2022/02/06 15:30:10;;;;;;;12.18;1.80;;;10.80;99.90;;;;;;5160184;23;20170;-95
2022/02/06 15:32:25;;;;;;;15.57;1.90;;;10.90;99.90;;;;;;5178888;22;20605;-93
2022/02/06 15:34:44;;;;;;;12.60;1.63;;;10.90;99.90;;;;;;5181676;23;20135;-95
2022/02/06 15:36:53;;;;;;;10.52;1.60;;;10.90;99.90;;;;;;5154909;23;20155;-95
2022/02/06 15:39:43;;;;;;;13.05;2.00;;;10.90;99.90;;;;;;5186127;22;20159;-96
2022/02/06 15:41:53;;;;;;;9.18;1.52;;;10.90;99.90;;;;;;5184251;23;20207;-94
2022/02/06 15:44:02;;;;;;;12.43;1.52;;;10.80;99.90;;;;;;5182768;22;20163;-95
2022/02/06 15:46:05;;;;;;;9.85;1.70;;;10.70;99.90;;;;;;5178277;23;20224;-95
2022/02/06 15:48:07;;;;;;;9.90;1.33;;;10.70;99.90;;;;;;5180625;22;20151;-95
2022/02/06 15:50:09;;;;;;;10.57;1.63;;;10.70;99.90;;;;;;5154295;23;20231;-95
2022/02/06 15:52:12;;;;;;;13.70;2.03;;;10.60;99.90;;;;;;5202941;22;20186;-94
2022/02/06 15:54:13;;;;;;;12.20;2.35;;;10.60;99.90;;;;;;5177667;22;20177;-94
2022/02/06 15:56:14;;;;;;;14.00;2.17;;;10.50;99.90;;;;;;5182259;23;20127;-94
2022/02/06 15:58:33;;;;;;;11.27;1.33;;;10.50;99.90;;;;;;5205190;22;20150;-94
2022/02/06 16:00:37;;;;;;;14.30;1.80;;;10.50;99.90;;;;;;5178013;23;20131;-95
2022/02/06 16:04:59;;;;;;;10.90;1.30;;;10.60;99.90;;;;;;5229986;22;20193;-93
2022/02/06 16:07:00;;;;;;;12.15;1.50;;;10.60;99.90;;;;;;5179324;22;20163;-93
2022/02/06 16:09:03;;;;;;;6.32;1.30;;;10.60;99.90;;;;;;5178436;23;20143;-96
2022/02/06 16:11:05;;;;;;;8.07;1.50;;;10.40;99.90;;;;;;5204570;22;20213;-94
2022/02/06 16:13:07;;;;;;;13.68;1.75;;;10.40;99.90;;;;;;5193300;22;20194;-93
2022/02/06 16:15:13;;;;;;;17.13;3.75;;;10.40;99.90;;;;;;5230053;22;20623;-94
2022/02/06 16:17:24;;;;;;;14.98;2.53;;;10.40;99.90;;;;;;5206515;22;20134;-94
2022/02/06 16:19:25;;;;;;;17.00;5.65;;;10.60;99.90;;;;;;5206036;22;20172;-94
2022/02/06 16:21:26;;;;;;;17.75;6.13;;;10.70;99.90;;;;;;5231662;22;20149;-95
2022/02/06 16:23:27;;;;;;;16.25;5.13;;;10.50;99.90;;;;;;5200977;22;20162;-92
2022/02/06 16:25:28;;;;;;;7.90;3.33;;;10.40;99.90;;;;;;5228336;22;20156;-95
2022/02/06 16:27:30;;;;;;;14.15;3.55;;;10.20;99.90;;;;;;5203765;22;20138;-93
2022/02/06 16:29:35;;;;;;;17.38;4.20;;;10.20;99.90;;;;;;5157117;22;20158;-96
2022/02/06 16:31:43;;;;;;;10.93;4.88;;;10.20;99.90;;;;;;5207697;22;20229;-93
2022/02/06 16:33:45;;;;;;;16.27;6.95;;;10.10;99.90;;;;;;5203521;22;20189;-94
2022/02/06 16:35:49;;;;;;;13.63;4.03;;;10.10;99.90;;;;;;5203938;22;20184;-94
2022/02/06 16:37:50;;;;;;;8.35;2.97;;;10.10;99.90;;;;;;5202789;22;20158;-95
2022/02/06 16:39:58;;;;;;;9.15;2.20;;;10.00;99.90;;;;;;5230290;22;20146;-92
2022/02/06 16:42:04;;;;;;;13.32;2.80;;;10.10;99.90;;;;;;5227689;22;20180;-93
2022/02/06 16:44:06;;;;;;;13.20;2.45;;;10.00;99.90;;;;;;5233179;22;20226;-95
2022/02/06 16:46:09;;;;;;;9.05;2.53;;;10.10;99.90;;;;;;5179840;23;20181;-94
2022/02/06 16:48:15;;;;;;;18.77;2.65;;;10.20;99.90;;;;;;5228924;22;20154;-95
2022/02/06 16:50:34;;;;;;;16.00;2.88;;;10.20;99.90;;;;;;5226176;22;20150;-93
2022/02/06 16:52:36;;;;;;;16.60;5.07;;;10.00;99.90;;;;;;5202875;22;20261;-96
2022/02/06 16:54:39;;;;;;;20.52;9.00;;;10.00;99.90;;;;;;5201381;22;20153;-95
2022/02/06 16:56:46;;;;;;;13.82;2.75;;;9.80;99.90;;;;;;5206492;22;20529;-94
2022/02/06 16:59:02;;;;;;;12.63;2.53;;;9.80;99.90;;;;;;5233481;22;20141;-94
2022/02/06 17:01:20;;;;;;;7.03;2.00;;;9.80;99.90;;;;;;5206010;22;20130;-94
2022/02/06 17:03:25;;;;;;;5.88;1.50;;;9.70;99.90;;;;;;5211041;22;20154;-94
2022/02/06 17:05:29;;;;;;;13.77;1.75;;;9.80;99.90;;;;;;5205873;22;20166;-94
2022/02/06 17:08:01;;;;;;;10.43;1.80;;;9.80;99.90;;;;;;5235046;22;20621;-93
2022/02/06 17:10:46;;;;;;;16.67;2.53;;;9.80;99.90;;;;;;5233653;22;20158;-94
2022/02/06 17:12:53;;;;;;;14.65;2.50;;;9.80;99.90;;;;;;5261655;22;20183;-96
2022/02/06 17:14:55;;;;;;;15.35;2.33;;;9.80;99.90;;;;;;5212125;22;20162;-93
2022/02/06 17:19:22;;;;;;;16.73;3.03;;;10.00;99.90;;;;;;5202057;22;20211;-92
2022/02/06 17:22:02;;;;;;;19.02;5.10;;;10.10;99.90;;;;;;5187294;22;20176;-93
2022/02/06 17:24:34;;;;;;;13.65;2.92;;;10.10;99.90;;;;;;5206688;22;20181;-92
2022/02/06 17:26:38;;;;;;;16.20;4.65;;;10.10;99.90;;;;;;5207650;22;20130;-95
2022/02/06 17:28:42;;;;;;;13.68;2.42;;;10.00;99.90;;;;;;5184677;22;20149;-94
2022/02/06 17:30:43;;;;;;;15.75;3.22;;;10.10;99.90;;;;;;5180915;22;20151;-93
2022/02/06 17:32:48;;;;;;;15.27;4.25;;;10.10;99.90;;;;;;5210070;22;20173;-94
2022/02/06 17:34:49;;;;;;;15.90;2.75;;;10.10;99.90;;;;;;5180527;22;20158;-94
2022/02/06 17:36:58;;;;;;;24.88;3.28;;;10.20;99.90;;;;;;5211468;22;20135;-92
2022/02/06 17:39:00;;;;;;;19.30;3.20;;;10.10;99.90;;;;;;5204645;22;20154;-93
2022/02/06 17:41:13;;;;;;;17.60;4.03;;;10.20;99.90;;;;;;5206635;22;20233;-93
2022/02/06 17:43:25;;;;;;;14.23;2.15;;;10.20;99.90;;;;;;5213254;22;20165;-93
2022/02/06 17:45:28;;;;;;;10.90;3.40;;;10.30;99.90;;;;;;5205778;22;20143;-95
2022/02/06 17:47:29;;;;;;;18.05;2.65;;;10.40;99.90;;;;;;5208858;22;20169;-93
2022/02/06 17:49:30;;;;;;;17.80;2.47;;;10.40;99.90;;;;;;5183779;22;20230;-94
2022/02/06 17:51:31;;;;;;;13.90;2.63;;;10.40;99.90;;;;;;5209335;22;20138;-94
2022/02/06 17:53:32;;;;;;;15.85;2.88;;;10.40;99.90;;;;;;5181511;22;20174;-94
2022/02/06 17:55:54;;;;;;;13.48;2.67;;;10.40;99.90;;;;;;5180631;22;20135;-93
2022/02/06 17:58:10;;;;;;;10.15;3.13;;;10.50;99.90;;;;;;5209268;22;20154;-94
2022/02/06 18:00:33;;;;;;;9.63;2.90;;;10.50;99.90;;;;;;5209578;22;20150;-92
2022/02/06 18:02:34;;;;;;;14.90;2.17;;;10.50;99.90;;;;;;5233121;22;20149;-96